sensor_id;sensor_type;location;lat;lon;timestamp;pressure;altitude;pressure_sealevel;temperature
45393;BMP280;31129;44.810;10.334;2022-07-29T00:01:49;100629.34;;;26.25
45393;BMP280;31129;44.810;10.334;2022-07-29T00:04:17;100631.66;;;26.09
45393;BMP280;31129;44.810;10.334;2022-07-29T00:06:43;100624.34;;;26.23
45393;BMP280;31129;44.810;10.334;2022-07-29T00:09:08;100621.88;;;26.28
45393;BMP280;31129;44.810;10.334;2022-07-29T00:11:34;100628.75;;;26.17
45393;BMP280;31129;44.810;10.334;2022-07-29T00:13:59;100627.03;;;26.31
45393;BMP280;31129;44.810;10.334;2022-07-29T00:16:25;100637.44;;;26.21
45393;BMP280;31129;44.810;10.334;2022-07-29T00:18:50;100636.38;;;26.07
45393;BMP280;31129;44.810;10.334;2022-07-29T00:21:16;100641.38;;;26.08
45393;BMP280;31129;44.810;10.334;2022-07-29T00:23:41;100649.50;;;26.14
45393;BMP280;31129;44.810;10.334;2022-07-29T00:26:07;100644.56;;;25.95
45393;BMP280;31129;44.810;10.334;2022-07-29T00:28:32;100645.69;;;25.83
45393;BMP280;31129;44.810;10.334;2022-07-29T00:30:58;100647.09;;;26.01
45393;BMP280;31129;44.810;10.334;2022-07-29T00:33:24;100644.31;;;26.10
45393;BMP280;31129;44.810;10.334;2022-07-29T00:35:49;100634.59;;;26.02
45393;BMP280;31129;44.810;10.334;2022-07-29T00:38:18;100642.66;;;25.98
45393;BMP280;31129;44.810;10.334;2022-07-29T00:40:45;100637.44;;;26.11
45393;BMP280;31129;44.810;10.334;2022-07-29T00:43:13;100637.81;;;25.98
45393;BMP280;31129;44.810;10.334;2022-07-29T00:45:39;100634.13;;;25.96
45393;BMP280;31129;44.810;10.334;2022-07-29T00:48:05;100628.19;;;25.92
45393;BMP280;31129;44.810;10.334;2022-07-29T00:50:32;100621.28;;;25.93
45393;BMP280;31129;44.810;10.334;2022-07-29T00:52:58;100623.47;;;25.85
45393;BMP280;31129;44.810;10.334;2022-07-29T00:55:25;100611.41;;;25.82
45393;BMP280;31129;44.810;10.334;2022-07-29T00:57:52;100614.13;;;25.99
45393;BMP280;31129;44.810;10.334;2022-07-29T01:00:21;100614.72;;;26.07
45393;BMP280;31129;44.810;10.334;2022-07-29T01:02:47;100614.44;;;26.03
45393;BMP280;31129;44.810;10.334;2022-07-29T01:05:21;100616.03;;;25.97
45393;BMP280;31129;44.810;10.334;2022-07-29T01:07:49;100617.44;;;25.88
45393;BMP280;31129;44.810;10.334;2022-07-29T01:10:16;100624.91;;;25.76
45393;BMP280;31129;44.810;10.334;2022-07-29T01:12:44;100625.22;;;25.80
45393;BMP280;31129;44.810;10.334;2022-07-29T01:15:10;100620.69;;;25.94
45393;BMP280;31129;44.810;10.334;2022-07-29T01:17:54;100623.69;;;26.06
45393;BMP280;31129;44.810;10.334;2022-07-29T01:23:28;100620.63;;;26.11
45393;BMP280;31129;44.810;10.334;2022-07-29T01:26:31;100624.28;;;26.04
45393;BMP280;31129;44.810;10.334;2022-07-29T01:29:11;100622.88;;;25.86
45393;BMP280;31129;44.810;10.334;2022-07-29T01:32:00;100621.78;;;25.99
45393;BMP280;31129;44.810;10.334;2022-07-29T01:34:37;100621.63;;;25.97
45393;BMP280;31129;44.810;10.334;2022-07-29T01:38:12;100627.22;;;25.97
45393;BMP280;31129;44.810;10.334;2022-07-29T01:40:13;100612.88;;;25.83
45393;BMP280;31129;44.810;10.334;2022-07-29T01:42:44;100614.72;;;25.71
45393;BMP280;31129;44.810;10.334;2022-07-29T01:45:28;100614.69;;;25.98
45393;BMP280;31129;44.810;10.334;2022-07-29T01:48:16;100618.25;;;26.08
45393;BMP280;31129;44.810;10.334;2022-07-29T01:50:48;100623.16;;;25.81
45393;BMP280;31129;44.810;10.334;2022-07-29T01:53:21;100615.75;;;25.75
45393;BMP280;31129;44.810;10.334;2022-07-29T01:55:49;100620.31;;;25.71
45393;BMP280;31129;44.810;10.334;2022-07-29T01:58:17;100620.00;;;25.40
45393;BMP280;31129;44.810;10.334;2022-07-29T02:00:44;100618.00;;;25.33
45393;BMP280;31129;44.810;10.334;2022-07-29T02:03:12;100619.75;;;25.28
45393;BMP280;31129;44.810;10.334;2022-07-29T02:05:39;100620.84;;;24.99
45393;BMP280;31129;44.810;10.334;2022-07-29T02:08:07;100616.22;;;25.11
45393;BMP280;31129;44.810;10.334;2022-07-29T02:10:34;100618.03;;;25.16
45393;BMP280;31129;44.810;10.334;2022-07-29T02:13:02;100611.94;;;25.10
45393;BMP280;31129;44.810;10.334;2022-07-29T02:15:28;100602.75;;;25.00
45393;BMP280;31129;44.810;10.334;2022-07-29T02:18:02;100607.75;;;25.01
45393;BMP280;31129;44.810;10.334;2022-07-29T02:20:30;100603.88;;;25.31
45393;BMP280;31129;44.810;10.334;2022-07-29T02:22:57;100603.50;;;25.44
45393;BMP280;31129;44.810;10.334;2022-07-29T02:25:23;100598.78;;;25.37
45393;BMP280;31129;44.810;10.334;2022-07-29T02:27:50;100597.78;;;25.42
45393;BMP280;31129;44.810;10.334;2022-07-29T02:30:20;100596.16;;;25.39
45393;BMP280;31129;44.810;10.334;2022-07-29T02:32:48;100602.38;;;25.30
45393;BMP280;31129;44.810;10.334;2022-07-29T02:35:16;100599.59;;;25.30
45393;BMP280;31129;44.810;10.334;2022-07-29T02:37:42;100599.72;;;25.22
45393;BMP280;31129;44.810;10.334;2022-07-29T02:40:11;100605.72;;;25.02
45393;BMP280;31129;44.810;10.334;2022-07-29T02:42:38;100603.00;;;24.94
45393;BMP280;31129;44.810;10.334;2022-07-29T02:45:06;100602.88;;;24.92
45393;BMP280;31129;44.810;10.334;2022-07-29T02:47:47;100604.56;;;24.87
45393;BMP280;31129;44.810;10.334;2022-07-29T02:50:17;100611.31;;;24.84
45393;BMP280;31129;44.810;10.334;2022-07-29T02:52:52;100607.19;;;24.85
45393;BMP280;31129;44.810;10.334;2022-07-29T03:00:48;100595.53;;;24.62
45393;BMP280;31129;44.810;10.334;2022-07-29T03:03:18;100596.75;;;24.69
45393;BMP280;31129;44.810;10.334;2022-07-29T03:05:44;100596.75;;;24.69
45393;BMP280;31129;44.810;10.334;2022-07-29T03:08:11;100597.34;;;24.67
45393;BMP280;31129;44.810;10.334;2022-07-29T03:10:39;100594.97;;;24.81
45393;BMP280;31129;44.810;10.334;2022-07-29T03:13:06;100597.44;;;24.77
45393;BMP280;31129;44.810;10.334;2022-07-29T03:15:33;100598.00;;;24.75
45393;BMP280;31129;44.810;10.334;2022-07-29T03:17:59;100604.91;;;24.74
45393;BMP280;31129;44.810;10.334;2022-07-29T03:20:25;100606.53;;;24.77
45393;BMP280;31129;44.810;10.334;2022-07-29T03:22:51;100610.56;;;24.84
45393;BMP280;31129;44.810;10.334;2022-07-29T03:25:18;100626.09;;;24.77
45393;BMP280;31129;44.810;10.334;2022-07-29T03:27:44;100619.69;;;24.84
45393;BMP280;31129;44.810;10.334;2022-07-29T03:30:11;100620.72;;;24.72
45393;BMP280;31129;44.810;10.334;2022-07-29T03:32:37;100612.28;;;24.62
45393;BMP280;31129;44.810;10.334;2022-07-29T03:35:04;100611.53;;;24.62
45393;BMP280;31129;44.810;10.334;2022-07-29T03:37:29;100610.69;;;24.69
45393;BMP280;31129;44.810;10.334;2022-07-29T03:39:57;100606.59;;;24.70
45393;BMP280;31129;44.810;10.334;2022-07-29T03:42:32;100598.31;;;24.79
45393;BMP280;31129;44.810;10.334;2022-07-29T03:45:00;100600.63;;;24.91
45393;BMP280;31129;44.810;10.334;2022-07-29T03:47:28;100603.75;;;24.77
45393;BMP280;31129;44.810;10.334;2022-07-29T03:50:00;100613.16;;;24.65
45393;BMP280;31129;44.810;10.334;2022-07-29T03:52:27;100614.56;;;24.73
45393;BMP280;31129;44.810;10.334;2022-07-29T03:54:53;100613.91;;;24.65
45393;BMP280;31129;44.810;10.334;2022-07-29T03:57:23;100616.56;;;24.38
45393;BMP280;31129;44.810;10.334;2022-07-29T03:59:51;100620.72;;;24.30
45393;BMP280;31129;44.810;10.334;2022-07-29T04:02:17;100628.31;;;24.54
45393;BMP280;31129;44.810;10.334;2022-07-29T04:04:43;100624.22;;;24.55
45393;BMP280;31129;44.810;10.334;2022-07-29T04:07:12;100637.38;;;24.45
45393;BMP280;31129;44.810;10.334;2022-07-29T04:09:38;100643.38;;;24.34
45393;BMP280;31129;44.810;10.334;2022-07-29T04:12:04;100631.22;;;24.47
45393;BMP280;31129;44.810;10.334;2022-07-29T04:14:31;100642.25;;;24.37
45393;BMP280;31129;44.810;10.334;2022-07-29T04:16:57;100634.91;;;24.49
45393;BMP280;31129;44.810;10.334;2022-07-29T04:19:23;100635.78;;;25.11
45393;BMP280;31129;44.810;10.334;2022-07-29T04:21:48;100631.03;;;25.48
45393;BMP280;31129;44.810;10.334;2022-07-29T04:24:13;100627.50;;;25.47
45393;BMP280;31129;44.810;10.334;2022-07-29T04:26:39;100630.78;;;25.09
45393;BMP280;31129;44.810;10.334;2022-07-29T04:29:04;100624.47;;;25.09
45393;BMP280;31129;44.810;10.334;2022-07-29T04:31:30;100628.41;;;25.23
45393;BMP280;31129;44.810;10.334;2022-07-29T04:33:55;100622.88;;;25.15
45393;BMP280;31129;44.810;10.334;2022-07-29T04:36:21;100624.88;;;25.05
45393;BMP280;31129;44.810;10.334;2022-07-29T04:38:46;100620.84;;;24.99
45393;BMP280;31129;44.810;10.334;2022-07-29T04:41:12;100627.13;;;25.33
45393;BMP280;31129;44.810;10.334;2022-07-29T04:43:37;100624.88;;;25.05
45393;BMP280;31129;44.810;10.334;2022-07-29T04:46:03;100626.50;;;25.08
45393;BMP280;31129;44.810;10.334;2022-07-29T04:48:31;100622.47;;;24.84
45393;BMP280;31129;44.810;10.334;2022-07-29T04:50:56;100628.63;;;24.83
45393;BMP280;31129;44.810;10.334;2022-07-29T04:53:22;100642.09;;;24.77
45393;BMP280;31129;44.810;10.334;2022-07-29T04:55:48;100644.53;;;24.73
45393;BMP280;31129;44.810;10.334;2022-07-29T04:58:13;100649.75;;;24.52
45393;BMP280;31129;44.810;10.334;2022-07-29T05:00:39;100646.50;;;24.63
45393;BMP280;31129;44.810;10.334;2022-07-29T05:03:05;100653.66;;;24.73
45393;BMP280;31129;44.810;10.334;2022-07-29T05:05:30;100657.19;;;24.74
45393;BMP280;31129;44.810;10.334;2022-07-29T05:07:56;100659.94;;;24.57
45393;BMP280;31129;44.810;10.334;2022-07-29T05:10:22;100667.09;;;24.50
45393;BMP280;31129;44.810;10.334;2022-07-29T05:12:48;100667.63;;;24.73
45393;BMP280;31129;44.810;10.334;2022-07-29T05:15:14;100681.66;;;24.41
45393;BMP280;31129;44.810;10.334;2022-07-29T05:17:39;100688.44;;;24.55
45393;BMP280;31129;44.810;10.334;2022-07-29T05:20:06;100692.84;;;24.58
45393;BMP280;31129;44.810;10.334;2022-07-29T05:22:34;100697.41;;;24.96
45393;BMP280;31129;44.810;10.334;2022-07-29T05:25:00;100697.13;;;24.84
45393;BMP280;31129;44.810;10.334;2022-07-29T05:27:25;100709.78;;;23.63
45393;BMP280;31129;44.810;10.334;2022-07-29T05:29:51;100703.41;;;24.18
45393;BMP280;31129;44.810;10.334;2022-07-29T05:32:17;100698.00;;;24.69
45393;BMP280;31129;44.810;10.334;2022-07-29T05:34:42;100694.34;;;24.34
45393;BMP280;31129;44.810;10.334;2022-07-29T05:37:08;100701.16;;;24.16
45393;BMP280;31129;44.810;10.334;2022-07-29T05:39:33;100695.44;;;24.14
45393;BMP280;31129;44.810;10.334;2022-07-29T05:41:59;100693.22;;;24.62
45393;BMP280;31129;44.810;10.334;2022-07-29T05:44:24;100703.25;;;25.07
45393;BMP280;31129;44.810;10.334;2022-07-29T05:46:50;100686.91;;;25.21
45393;BMP280;31129;44.810;10.334;2022-07-29T05:49:16;100688.78;;;25.01
45393;BMP280;31129;44.810;10.334;2022-07-29T05:51:47;100686.41;;;25.15
45393;BMP280;31129;44.810;10.334;2022-07-29T05:54:14;100697.19;;;24.76
45393;BMP280;31129;44.810;10.334;2022-07-29T05:56:40;100701.44;;;25.02
45393;BMP280;31129;44.810;10.334;2022-07-29T05:59:05;100712.66;;;24.77
45393;BMP280;31129;44.810;10.334;2022-07-29T06:01:31;100723.38;;;24.64
45393;BMP280;31129;44.810;10.334;2022-07-29T06:03:56;100716.94;;;24.29
45393;BMP280;31129;44.810;10.334;2022-07-29T06:06:22;100713.44;;;24.46
45393;BMP280;31129;44.810;10.334;2022-07-29T06:08:48;100703.97;;;24.66
45393;BMP280;31129;44.810;10.334;2022-07-29T06:11:13;100713.56;;;24.80
45393;BMP280;31129;44.810;10.334;2022-07-29T06:13:42;100717.16;;;24.48
45393;BMP280;31129;44.810;10.334;2022-07-29T06:16:07;100712.06;;;24.54
45393;BMP280;31129;44.810;10.334;2022-07-29T06:18:32;100712.75;;;24.62
45393;BMP280;31129;44.810;10.334;2022-07-29T06:20:58;100716.53;;;24.82
45393;BMP280;31129;44.810;10.334;2022-07-29T06:23:23;100718.25;;;24.77
45393;BMP280;31129;44.810;10.334;2022-07-29T06:25:49;100723.09;;;24.77
45393;BMP280;31129;44.810;10.334;2022-07-29T06:28:14;100730.50;;;24.82
45393;BMP280;31129;44.810;10.334;2022-07-29T06:30:40;100725.34;;;24.71
45393;BMP280;31129;44.810;10.334;2022-07-29T06:33:06;100731.84;;;24.73
45393;BMP280;31129;44.810;10.334;2022-07-29T06:35:35;100733.78;;;24.63
45393;BMP280;31129;44.810;10.334;2022-07-29T06:38:02;100724.47;;;24.85
45393;BMP280;31129;44.810;10.334;2022-07-29T06:40:28;100728.28;;;24.98
45393;BMP280;31129;44.810;10.334;2022-07-29T06:43:12;100720.28;;;25.36
45393;BMP280;31129;44.810;10.334;2022-07-29T06:45:37;100731.63;;;25.38
45393;BMP280;31129;44.810;10.334;2022-07-29T06:48:06;100732.06;;;25.10
45393;BMP280;31129;44.810;10.334;2022-07-29T06:50:31;100720.59;;;25.06
45393;BMP280;31129;44.810;10.334;2022-07-29T06:52:57;100720.91;;;25.27
45393;BMP280;31129;44.810;10.334;2022-07-29T06:55:22;100721.09;;;25.46
45393;BMP280;31129;44.810;10.334;2022-07-29T06:57:48;100716.56;;;25.51
45393;BMP280;31129;44.810;10.334;2022-07-29T07:00:13;100710.16;;;25.41
45393;BMP280;31129;44.810;10.334;2022-07-29T07:02:39;100711.88;;;25.70
45393;BMP280;31129;44.810;10.334;2022-07-29T07:05:05;100713.19;;;25.69
45393;BMP280;31129;44.810;10.334;2022-07-29T07:07:31;100710.25;;;25.50
45393;BMP280;31129;44.810;10.334;2022-07-29T07:09:56;100709.91;;;25.90
45393;BMP280;31129;44.810;10.334;2022-07-29T07:12:22;100709.06;;;25.97
45393;BMP280;31129;44.810;10.334;2022-07-29T07:14:47;100720.25;;;25.97
45393;BMP280;31129;44.810;10.334;2022-07-29T07:17:13;100710.47;;;25.62
45393;BMP280;31129;44.810;10.334;2022-07-29T07:19:39;100718.25;;;25.81
45393;BMP280;31129;44.810;10.334;2022-07-29T07:22:04;100716.78;;;26.06
45393;BMP280;31129;44.810;10.334;2022-07-29T07:24:30;100729.41;;;26.34
45393;BMP280;31129;44.810;10.334;2022-07-29T07:26:55;100729.19;;;26.49
45393;BMP280;31129;44.810;10.334;2022-07-29T07:29:21;100729.47;;;26.44
45393;BMP280;31129;44.810;10.334;2022-07-29T07:31:46;100726.16;;;26.28
45393;BMP280;31129;44.810;10.334;2022-07-29T07:34:15;100723.94;;;26.63
45393;BMP280;31129;44.810;10.334;2022-07-29T07:36:40;100734.81;;;26.49
45393;BMP280;31129;44.810;10.334;2022-07-29T07:39:05;100724.91;;;26.48
45393;BMP280;31129;44.810;10.334;2022-07-29T07:41:31;100725.66;;;26.49
45393;BMP280;31129;44.810;10.334;2022-07-29T07:43:57;100723.31;;;26.55
45393;BMP280;31129;44.810;10.334;2022-07-29T07:46:22;100715.03;;;26.47
45393;BMP280;31129;44.810;10.334;2022-07-29T07:48:48;100709.69;;;26.78
45393;BMP280;31129;44.810;10.334;2022-07-29T07:51:13;100719.50;;;26.69
45393;BMP280;31129;44.810;10.334;2022-07-29T07:53:39;100720.72;;;26.76
45393;BMP280;31129;44.810;10.334;2022-07-29T07:56:05;100717.50;;;26.89
45393;BMP280;31129;44.810;10.334;2022-07-29T07:58:32;100717.66;;;27.01
45393;BMP280;31129;44.810;10.334;2022-07-29T08:01:00;100713.72;;;27.04
45393;BMP280;31129;44.810;10.334;2022-07-29T08:03:26;100708.66;;;27.12
45393;BMP280;31129;44.810;10.334;2022-07-29T08:05:51;100707.94;;;27.11
45393;BMP280;31129;44.810;10.334;2022-07-29T08:08:17;100706.63;;;27.03
45393;BMP280;31129;44.810;10.334;2022-07-29T08:10:43;100692.88;;;27.16
45393;BMP280;31129;44.810;10.334;2022-07-29T08:13:18;100697.91;;;27.37
45393;BMP280;31129;44.810;10.334;2022-07-29T08:15:44;100692.59;;;27.41
45393;BMP280;31129;44.810;10.334;2022-07-29T08:18:11;100694.91;;;27.54
45393;BMP280;31129;44.810;10.334;2022-07-29T08:20:37;100700.69;;;27.28
45393;BMP280;31129;44.810;10.334;2022-07-29T08:23:05;100700.56;;;27.26
45393;BMP280;31129;44.810;10.334;2022-07-29T08:25:32;100694.31;;;27.46
45393;BMP280;31129;44.810;10.334;2022-07-29T08:27:57;100693.56;;;27.65
45393;BMP280;31129;44.810;10.334;2022-07-29T08:30:22;100698.59;;;27.57
45393;BMP280;31129;44.810;10.334;2022-07-29T08:32:48;100696.66;;;27.69
45393;BMP280;31129;44.810;10.334;2022-07-29T08:35:15;100705.63;;;27.87
45393;BMP280;31129;44.810;10.334;2022-07-29T08:37:41;100705.28;;;27.92
45393;BMP280;31129;44.810;10.334;2022-07-29T08:40:07;100703.94;;;28.03
45393;BMP280;31129;44.810;10.334;2022-07-29T08:42:32;100704.81;;;28.05
45393;BMP280;31129;44.810;10.334;2022-07-29T08:44:58;100702.44;;;28.11
45393;BMP280;31129;44.810;10.334;2022-07-29T08:47:25;100698.94;;;28.23
45393;BMP280;31129;44.810;10.334;2022-07-29T08:49:51;100703.13;;;28.22
45393;BMP280;31129;44.810;10.334;2022-07-29T08:52:17;100698.00;;;28.08
45393;BMP280;31129;44.810;10.334;2022-07-29T08:54:43;100695.16;;;28.18
45393;BMP280;31129;44.810;10.334;2022-07-29T08:57:12;100696.94;;;28.13
45393;BMP280;31129;44.810;10.334;2022-07-29T08:59:40;100685.34;;;28.29
45393;BMP280;31129;44.810;10.334;2022-07-29T09:02:13;100696.31;;;28.25
45393;BMP280;31129;44.810;10.334;2022-07-29T09:04:40;100682.47;;;28.38
45393;BMP280;31129;44.810;10.334;2022-07-29T09:07:06;100691.34;;;28.35
45393;BMP280;31129;44.810;10.334;2022-07-29T09:09:33;100693.19;;;28.30
45393;BMP280;31129;44.810;10.334;2022-07-29T09:11:59;100689.88;;;28.43
45393;BMP280;31129;44.810;10.334;2022-07-29T09:14:25;100696.44;;;28.57
45393;BMP280;31129;44.810;10.334;2022-07-29T09:16:55;100692.88;;;28.57
45393;BMP280;31129;44.810;10.334;2022-07-29T09:19:26;100691.63;;;28.39
45393;BMP280;31129;44.810;10.334;2022-07-29T09:21:53;100690.06;;;28.57
45393;BMP280;31129;44.810;10.334;2022-07-29T09:27:07;100675.53;;;29.03
45393;BMP280;31129;44.810;10.334;2022-07-29T09:29:33;100676.28;;;29.15
45393;BMP280;31129;44.810;10.334;2022-07-29T09:31:58;100683.38;;;29.16
45393;BMP280;31129;44.810;10.334;2022-07-29T09:34:26;100680.78;;;29.08
45393;BMP280;31129;44.810;10.334;2022-07-29T09:36:53;100667.59;;;29.11
45393;BMP280;31129;44.810;10.334;2022-07-29T09:39:32;100666.44;;;29.37
45393;BMP280;31129;44.810;10.334;2022-07-29T09:42:00;100665.03;;;29.15
45393;BMP280;31129;44.810;10.334;2022-07-29T09:44:25;100665.06;;;29.27
45393;BMP280;31129;44.810;10.334;2022-07-29T09:47:04;100658.97;;;29.42
45393;BMP280;31129;44.810;10.334;2022-07-29T09:49:33;100655.25;;;29.16
45393;BMP280;31129;44.810;10.334;2022-07-29T09:52:09;100644.19;;;29.41
45393;BMP280;31129;44.810;10.334;2022-07-29T09:54:36;100637.22;;;29.42
45393;BMP280;31129;44.810;10.334;2022-07-29T09:57:09;100637.72;;;29.50
45393;BMP280;31129;44.810;10.334;2022-07-29T10:00:01;100633.19;;;29.57
45393;BMP280;31129;44.810;10.334;2022-07-29T10:02:39;100633.81;;;29.67
45393;BMP280;31129;44.810;10.334;2022-07-29T10:05:15;100631.13;;;29.69
45393;BMP280;31129;44.810;10.334;2022-07-29T10:10:09;100630.47;;;30.05
45393;BMP280;31129;44.810;10.334;2022-07-29T10:12:48;100637.22;;;30.12
45393;BMP280;31129;44.810;10.334;2022-07-29T10:15:15;100624.69;;;30.27
45393;BMP280;31129;44.810;10.334;2022-07-29T10:17:41;100622.91;;;30.08
45393;BMP280;31129;44.810;10.334;2022-07-29T10:20:07;100626.34;;;29.83
45393;BMP280;31129;44.810;10.334;2022-07-29T10:22:33;100621.22;;;29.80
45393;BMP280;31129;44.810;10.334;2022-07-29T10:24:59;100614.09;;;29.90
45393;BMP280;31129;44.810;10.334;2022-07-29T10:27:25;100611.50;;;30.06
45393;BMP280;31129;44.810;10.334;2022-07-29T10:29:50;100613.56;;;30.17
45393;BMP280;31129;44.810;10.334;2022-07-29T10:35:11;100606.88;;;30.10
45393;BMP280;31129;44.810;10.334;2022-07-29T10:40:17;100606.09;;;30.58
45393;BMP280;31129;44.810;10.334;2022-07-29T10:43:21;100613.72;;;30.56
45393;BMP280;31129;44.810;10.334;2022-07-29T10:45:49;100609.03;;;30.60
45393;BMP280;31129;44.810;10.334;2022-07-29T10:48:20;100609.75;;;30.61
45393;BMP280;31129;44.810;10.334;2022-07-29T10:53:24;100601.25;;;30.73
45393;BMP280;31129;44.810;10.334;2022-07-29T10:55:51;100599.16;;;30.73
45393;BMP280;31129;44.810;10.334;2022-07-29T10:58:17;100602.56;;;30.83
45393;BMP280;31129;44.810;10.334;2022-07-29T11:00:45;100598.72;;;31.04
45393;BMP280;31129;44.810;10.334;2022-07-29T11:03:41;100603.31;;;30.97
45393;BMP280;31129;44.810;10.334;2022-07-29T11:05:56;100599.56;;;31.06
45393;BMP280;31129;44.810;10.334;2022-07-29T11:08:23;100600.47;;;30.97
45393;BMP280;31129;44.810;10.334;2022-07-29T11:13:52;100592.06;;;31.11
45393;BMP280;31129;44.810;10.334;2022-07-29T11:16:21;100584.00;;;31.05
45393;BMP280;31129;44.810;10.334;2022-07-29T11:21:39;100581.16;;;31.31
45393;BMP280;31129;44.810;10.334;2022-07-29T11:24:34;100575.78;;;31.23
45393;BMP280;31129;44.810;10.334;2022-07-29T11:32:18;100561.13;;;31.81
45393;BMP280;31129;44.810;10.334;2022-07-29T11:34:48;100556.13;;;31.93
45393;BMP280;31129;44.810;10.334;2022-07-29T11:37:14;100552.44;;;31.91
45393;BMP280;31129;44.810;10.334;2022-07-29T11:47:40;100541.38;;;31.67
45393;BMP280;31129;44.810;10.334;2022-07-29T11:50:09;100533.34;;;31.48
45393;BMP280;31129;44.810;10.334;2022-07-29T11:52:37;100535.97;;;31.58
45393;BMP280;31129;44.810;10.334;2022-07-29T11:55:09;100530.00;;;31.65
45393;BMP280;31129;44.810;10.334;2022-07-29T11:57:35;100533.66;;;32.11
45393;BMP280;31129;44.810;10.334;2022-07-29T12:00:01;100531.22;;;32.19
45393;BMP280;31129;44.810;10.334;2022-07-29T12:02:40;100524.53;;;32.42
45393;BMP280;31129;44.810;10.334;2022-07-29T12:05:07;100525.88;;;32.25
45393;BMP280;31129;44.810;10.334;2022-07-29T12:07:34;100526.34;;;32.35
45393;BMP280;31129;44.810;10.334;2022-07-29T12:10:00;100527.19;;;32.38
45393;BMP280;31129;44.810;10.334;2022-07-29T12:12:26;100523.38;;;32.62
45393;BMP280;31129;44.810;10.334;2022-07-29T12:14:51;100513.59;;;32.97
45393;BMP280;31129;44.810;10.334;2022-07-29T12:19:59;100517.47;;;33.37
45393;BMP280;31129;44.810;10.334;2022-07-29T12:22:33;100516.13;;;33.22
45393;BMP280;31129;44.810;10.334;2022-07-29T12:25:05;100514.53;;;32.86
45393;BMP280;31129;44.810;10.334;2022-07-29T12:27:31;100511.94;;;32.60
45393;BMP280;31129;44.810;10.334;2022-07-29T12:30:03;100511.31;;;32.46
45393;BMP280;31129;44.810;10.334;2022-07-29T12:32:44;100504.66;;;32.10
45393;BMP280;31129;44.810;10.334;2022-07-29T12:35:16;100504.38;;;32.04
45393;BMP280;31129;44.810;10.334;2022-07-29T12:37:44;100508.38;;;31.99
45393;BMP280;31129;44.810;10.334;2022-07-29T12:40:11;100503.72;;;31.90
45393;BMP280;31129;44.810;10.334;2022-07-29T12:42:38;100500.28;;;31.78
45393;BMP280;31129;44.810;10.334;2022-07-29T12:45:05;100498.22;;;31.65
45393;BMP280;31129;44.810;10.334;2022-07-29T12:47:30;100485.75;;;31.56
45393;BMP280;31129;44.810;10.334;2022-07-29T12:50:10;100473.84;;;31.58
45393;BMP280;31129;44.810;10.334;2022-07-29T12:52:36;100477.94;;;31.55
45393;BMP280;31129;44.810;10.334;2022-07-29T12:55:03;100470.41;;;31.59
45393;BMP280;31129;44.810;10.334;2022-07-29T12:57:29;100454.41;;;31.50
45393;BMP280;31129;44.810;10.334;2022-07-29T13:00:09;100443.78;;;31.49
45393;BMP280;31129;44.810;10.334;2022-07-29T13:02:38;100452.44;;;31.39
45393;BMP280;31129;44.810;10.334;2022-07-29T13:05:05;100465.63;;;31.21
45393;BMP280;31129;44.810;10.334;2022-07-29T13:07:33;100468.78;;;31.27
45393;BMP280;31129;44.810;10.334;2022-07-29T13:10:18;100464.16;;;31.20
45393;BMP280;31129;44.810;10.334;2022-07-29T13:13:04;100456.25;;;31.17
45393;BMP280;31129;44.810;10.334;2022-07-29T13:15:30;100447.97;;;31.07
45393;BMP280;31129;44.810;10.334;2022-07-29T13:17:56;100454.78;;;31.02
45393;BMP280;31129;44.810;10.334;2022-07-29T13:20:27;100448.41;;;31.01
45393;BMP280;31129;44.810;10.334;2022-07-29T13:22:55;100443.41;;;31.00
45393;BMP280;31129;44.810;10.334;2022-07-29T13:25:29;100440.59;;;31.00
45393;BMP280;31129;44.810;10.334;2022-07-29T13:27:55;100432.53;;;30.94
45393;BMP280;31129;44.810;10.334;2022-07-29T13:30:21;100453.31;;;31.01
45393;BMP280;31129;44.810;10.334;2022-07-29T13:32:48;100472.75;;;30.95
45393;BMP280;31129;44.810;10.334;2022-07-29T13:35:14;100469.28;;;30.83
45393;BMP280;31129;44.810;10.334;2022-07-29T13:37:39;100465.78;;;30.57
45393;BMP280;31129;44.810;10.334;2022-07-29T13:40:08;100464.66;;;30.37
45393;BMP280;31129;44.810;10.334;2022-07-29T13:42:34;100464.41;;;30.19
45393;BMP280;31129;44.810;10.334;2022-07-29T13:45:03;100483.41;;;29.82
45393;BMP280;31129;44.810;10.334;2022-07-29T13:47:29;100489.97;;;29.49
45393;BMP280;31129;44.810;10.334;2022-07-29T13:49:55;100485.91;;;28.94
45393;BMP280;31129;44.810;10.334;2022-07-29T13:52:20;100481.63;;;28.70
45393;BMP280;31129;44.810;10.334;2022-07-29T13:54:46;100474.44;;;28.46
45393;BMP280;31129;44.810;10.334;2022-07-29T13:57:12;100461.66;;;28.54
45393;BMP280;31129;44.810;10.334;2022-07-29T13:59:42;100437.03;;;28.32
45393;BMP280;31129;44.810;10.334;2022-07-29T14:02:09;100440.53;;;28.21
45393;BMP280;31129;44.810;10.334;2022-07-29T14:04:35;100461.81;;;28.35
45393;BMP280;31129;44.810;10.334;2022-07-29T14:07:01;100466.66;;;28.56
45393;BMP280;31129;44.810;10.334;2022-07-29T14:09:27;100457.38;;;28.65
45393;BMP280;31129;44.810;10.334;2022-07-29T14:11:52;100463.66;;;28.75
45393;BMP280;31129;44.810;10.334;2022-07-29T14:14:19;100465.00;;;28.86
45393;BMP280;31129;44.810;10.334;2022-07-29T14:16:45;100442.00;;;28.54
45393;BMP280;31129;44.810;10.334;2022-07-29T14:19:10;100429.44;;;28.55
45393;BMP280;31129;44.810;10.334;2022-07-29T14:21:37;100433.94;;;28.60
45393;BMP280;31129;44.810;10.334;2022-07-29T14:24:04;100431.94;;;28.40
45393;BMP280;31129;44.810;10.334;2022-07-29T14:26:29;100422.78;;;28.39
45393;BMP280;31129;44.810;10.334;2022-07-29T14:28:55;100413.25;;;28.44
45393;BMP280;31129;44.810;10.334;2022-07-29T14:31:20;100408.16;;;28.52
45393;BMP280;31129;44.810;10.334;2022-07-29T14:33:46;100418.91;;;28.56